createdAt,value
2023-03-28T00:00:46.062Z,14.00
2023-03-28T00:03:25.358Z,13.70
2023-03-28T00:06:03.445Z,15.00
2023-03-28T00:08:39.628Z,15.70
2023-03-28T00:11:20.277Z,14.00
2023-03-28T00:13:58.169Z,13.60
2023-03-28T00:16:33.895Z,14.10
2023-03-28T00:19:08.508Z,14.70
2023-03-28T00:21:42.946Z,14.80
2023-03-28T00:24:17.525Z,15.40
2023-03-28T00:26:54.836Z,14.50
2023-03-28T00:29:33.856Z,14.80
2023-03-28T00:32:07.962Z,15.30
2023-03-28T00:34:41.830Z,16.40
2023-03-28T00:37:18.561Z,16.30
2023-03-28T00:39:51.774Z,16.20
2023-03-28T00:42:27.611Z,16.60
2023-03-28T00:44:59.943Z,17.70
2023-03-28T00:47:42.027Z,17.90
2023-03-28T00:50:20.242Z,17.50
2023-03-28T00:52:56.749Z,18.10
2023-03-28T00:55:33.055Z,19.00
2023-03-28T00:58:08.570Z,19.20
2023-03-28T01:00:41.608Z,18.40
2023-03-28T01:03:13.845Z,17.30
2023-03-28T01:05:48.499Z,16.00
2023-03-28T01:08:24.524Z,16.60
2023-03-28T01:10:59.084Z,16.40
2023-03-28T01:13:36.116Z,16.60
2023-03-28T01:16:12.986Z,17.60
2023-03-28T01:18:51.556Z,18.80
2023-03-28T01:21:55.000Z,18.70
2023-03-28T01:25:10.973Z,18.40
2023-03-28T01:27:47.392Z,17.60
2023-03-28T01:30:38.930Z,16.50
2023-03-28T01:33:42.010Z,16.90
2023-03-28T01:36:59.495Z,16.70
2023-03-28T01:39:41.123Z,15.70
2023-03-28T01:42:19.702Z,16.20
2023-03-28T01:44:56.477Z,16.00
2023-03-28T01:47:32.924Z,15.30
2023-03-28T01:50:12.753Z,15.10
2023-03-28T01:52:51.344Z,15.20
2023-03-28T01:55:27.224Z,15.30
2023-03-28T01:58:06.445Z,15.40
2023-03-28T02:00:46.749Z,15.30
2023-03-28T02:03:25.222Z,15.20
2023-03-28T02:05:59.739Z,15.10
2023-03-28T02:08:36.747Z,15.10
2023-03-28T02:11:11.663Z,15.30
2023-03-28T02:13:48.152Z,14.70
2023-03-28T02:16:23.360Z,14.00
2023-03-28T02:18:58.955Z,14.20
2023-03-28T02:21:37.693Z,12.70
2023-03-28T02:24:12.535Z,13.60
2023-03-28T02:26:47.619Z,13.80
2023-03-28T02:29:21.538Z,12.80
2023-03-28T02:31:53.407Z,13.20
2023-03-28T02:34:27.474Z,13.40
2023-03-28T02:37:08.205Z,13.50
2023-03-28T02:39:52.602Z,13.00
2023-03-28T02:42:51.386Z,13.90
2023-03-28T02:45:39.412Z,13.70
2023-03-28T02:48:18.130Z,13.80
2023-03-28T02:50:56.090Z,14.50
2023-03-28T02:53:34.145Z,15.50
2023-03-28T02:56:11.155Z,16.10
2023-03-28T02:58:49.834Z,16.10
2023-03-28T03:01:30.676Z,14.80
2023-03-28T03:04:05.990Z,15.20
2023-03-28T03:06:38.302Z,14.40
2023-03-28T03:09:10.298Z,14.00
2023-03-28T03:11:42.092Z,13.90
2023-03-28T03:14:15.216Z,13.90
2023-03-28T03:16:49.297Z,15.20
2023-03-28T03:19:23.211Z,13.70
2023-03-28T03:21:58.837Z,13.00
2023-03-28T03:24:32.331Z,12.30
2023-03-28T03:27:06.644Z,11.70
2023-03-28T03:29:39.787Z,11.50
2023-03-28T03:32:12.872Z,11.20
2023-03-28T03:34:45.649Z,10.30
2023-03-28T03:37:18.997Z,11.10
2023-03-28T03:39:51.833Z,11.50
2023-03-28T03:42:26.207Z,11.70
2023-03-28T03:44:59.639Z,11.60
2023-03-28T03:47:33.320Z,11.10
2023-03-28T03:50:05.918Z,11.60
2023-03-28T03:52:37.988Z,12.00
2023-03-28T03:55:11.801Z,12.20
2023-03-28T03:57:43.593Z,13.20
2023-03-28T04:00:18.921Z,14.20
2023-03-28T04:02:53.775Z,14.40
2023-03-28T04:05:27.185Z,14.40
2023-03-28T04:08:02.682Z,14.10
2023-03-28T04:10:34.502Z,15.40
2023-03-28T04:13:07.837Z,17.20
2023-03-28T04:15:41.920Z,17.80
2023-03-28T04:18:15.640Z,18.80
2023-03-28T04:20:49.600Z,18.90
2023-03-28T04:23:26.832Z,17.80
2023-03-28T04:26:03.464Z,17.70
2023-03-28T04:28:35.416Z,14.00
2023-03-28T04:31:13.009Z,12.20
2023-03-28T04:33:47.539Z,11.70
2023-03-28T04:36:25.603Z,11.10
2023-03-28T04:39:04.293Z,11.10
2023-03-28T04:41:37.784Z,9.00
2023-03-28T04:44:13.329Z,8.70
2023-03-28T04:46:46.587Z,8.30
2023-03-28T04:49:19.761Z,9.20
2023-03-28T04:51:55.557Z,11.30
2023-03-28T04:54:28.240Z,11.90
2023-03-28T04:57:04.984Z,12.00
2023-03-28T04:59:40.491Z,12.00
2023-03-28T05:02:13.775Z,12.90
2023-03-28T05:04:46.391Z,17.50
2023-03-28T05:07:22.553Z,17.20
2023-03-28T05:09:58.890Z,15.20
2023-03-28T05:12:37.073Z,15.00
2023-03-28T05:15:21.434Z,15.50
2023-03-28T05:17:58.760Z,14.00
2023-03-28T05:20:39.244Z,14.00
2023-03-28T05:23:17.287Z,12.80
2023-03-28T05:26:04.963Z,13.60
2023-03-28T05:28:37.158Z,13.10
2023-03-28T05:31:12.930Z,14.90
2023-03-28T05:33:47.694Z,13.40
2023-03-28T05:36:23.601Z,15.00
2023-03-28T05:38:58.061Z,10.50
2023-03-28T05:41:33.662Z,9.70
2023-03-28T05:44:05.607Z,10.10
2023-03-28T05:46:41.310Z,9.50
2023-03-28T05:49:13.358Z,10.40
2023-03-28T05:51:48.943Z,11.00
2023-03-28T05:54:25.965Z,10.70
2023-03-28T05:56:59.582Z,13.90
2023-03-28T05:59:32.590Z,11.00
2023-03-28T06:02:09.483Z,9.80
2023-03-28T06:04:42.698Z,9.70
2023-03-28T06:07:15.051Z,10.10
2023-03-28T06:09:49.558Z,7.60
2023-03-28T06:12:23.470Z,7.40
2023-03-28T06:14:57.238Z,8.20
2023-03-28T06:17:31.362Z,8.00
2023-03-28T06:20:07.354Z,5.40
2023-03-28T06:22:39.419Z,5.50
2023-03-28T06:25:13.525Z,6.10
2023-03-28T06:27:46.873Z,6.90
2023-03-28T06:30:21.033Z,6.50
2023-03-28T06:32:53.697Z,5.20
2023-03-28T06:35:26.267Z,5.30
2023-03-28T06:38:00.888Z,4.80
2023-03-28T06:40:36.888Z,4.40
2023-03-28T06:43:10.152Z,4.20
2023-03-28T06:45:43.195Z,4.50
2023-03-28T06:48:16.647Z,6.90
2023-03-28T06:50:51.569Z,5.50
2023-03-28T06:53:23.801Z,5.80
2023-03-28T06:55:56.597Z,5.70
2023-03-28T06:58:29.213Z,6.60
2023-03-28T07:01:05.802Z,8.20
2023-03-28T07:03:37.745Z,7.30
2023-03-28T07:06:11.536Z,7.60
2023-03-28T07:08:45.682Z,6.40
2023-03-28T07:11:18.992Z,6.00
2023-03-28T07:13:51.057Z,9.80
2023-03-28T07:16:24.810Z,5.90
2023-03-28T07:18:58.829Z,7.30
2023-03-28T07:21:32.161Z,7.30
2023-03-28T07:24:04.137Z,8.60
2023-03-28T07:26:37.704Z,5.30
2023-03-28T07:29:10.013Z,5.00
2023-03-28T07:31:42.718Z,6.80
2023-03-28T07:34:18.741Z,13.00
2023-03-28T07:36:54.574Z,10.80
2023-03-28T07:39:36.091Z,5.20
2023-03-28T07:42:20.322Z,5.70
2023-03-28T07:44:52.241Z,5.10
2023-03-28T07:47:24.382Z,7.30
2023-03-28T07:49:57.530Z,6.80
2023-03-28T07:52:29.421Z,6.90
2023-03-28T07:55:04.616Z,5.80
2023-03-28T07:57:38.745Z,4.20
2023-03-28T08:00:14.100Z,8.70
2023-03-28T08:02:47.981Z,6.30
2023-03-28T08:05:24.230Z,7.00
2023-03-28T08:07:57.263Z,8.70
2023-03-28T08:10:29.200Z,6.20
2023-03-28T08:13:02.690Z,8.10
2023-03-28T08:15:37.350Z,6.00
2023-03-28T08:18:12.553Z,12.40
2023-03-28T08:20:45.296Z,13.00
2023-03-28T08:23:18.634Z,5.30
2023-03-28T08:25:52.915Z,6.30
2023-03-28T08:28:24.811Z,4.60
2023-03-28T08:30:57.139Z,4.20
2023-03-28T08:33:32.906Z,5.70
2023-03-28T08:36:05.283Z,8.80
2023-03-28T08:38:39.553Z,12.10
2023-03-28T08:41:20.734Z,8.20
2023-03-28T08:44:03.920Z,8.10
2023-03-28T08:46:37.075Z,5.20
2023-03-28T08:49:15.249Z,10.60
2023-03-28T08:51:51.018Z,7.40
2023-03-28T08:54:28.220Z,11.80
2023-03-28T08:57:03.006Z,4.00
2023-03-28T08:59:47.564Z,3.20
2023-03-28T09:02:23.858Z,7.90
2023-03-28T09:05:11.904Z,5.10
2023-03-28T09:07:56.432Z,6.20
2023-03-28T09:10:31.971Z,12.70
2023-03-28T09:13:13.193Z,7.40
2023-03-28T09:15:55.205Z,10.70
2023-03-28T09:19:00.730Z,34.70
2023-03-28T09:21:41.140Z,7.40
2023-03-28T09:24:22.004Z,17.50
2023-03-28T09:27:02.479Z,7.50
2023-03-28T09:29:38.677Z,6.00
2023-03-28T09:32:17.415Z,7.10
2023-03-28T09:34:52.841Z,8.70
2023-03-28T09:37:41.096Z,25.40
2023-03-28T09:40:20.944Z,11.30
2023-03-28T09:43:09.197Z,12.00
2023-03-28T09:45:53.773Z,8.90
2023-03-28T09:48:30.609Z,7.90
2023-03-28T09:51:06.447Z,6.20
2023-03-28T09:53:42.505Z,6.60
2023-03-28T09:56:22.816Z,8.60
2023-03-28T09:58:57.568Z,6.70
2023-03-28T10:01:37.714Z,6.70
2023-03-28T10:04:15.869Z,6.80
2023-03-28T10:06:50.318Z,3.70
2023-03-28T10:09:26.252Z,6.00
2023-03-28T10:12:03.619Z,6.00
2023-03-28T10:14:37.925Z,5.60
2023-03-28T10:17:16.198Z,5.30
2023-03-28T10:19:52.313Z,3.70
2023-03-28T10:22:27.939Z,4.90
2023-03-28T10:25:00.610Z,4.30
2023-03-28T10:27:35.261Z,4.60
2023-03-28T10:30:22.567Z,3.70
2023-03-28T10:33:25.401Z,6.20
2023-03-28T10:36:03.998Z,4.80
2023-03-28T10:38:39.026Z,3.40
2023-03-28T10:41:21.487Z,6.50
2023-03-28T10:43:58.067Z,4.40
2023-03-28T10:46:36.169Z,5.50
2023-03-28T10:49:15.936Z,4.50
2023-03-28T10:51:52.414Z,5.10
2023-03-28T10:54:38.360Z,3.80
2023-03-28T10:57:15.512Z,4.60
2023-03-28T10:59:52.870Z,4.10
2023-03-28T11:02:51.052Z,4.30
2023-03-28T11:05:39.468Z,3.80
2023-03-28T11:08:31.500Z,4.70
2023-03-28T11:11:08.496Z,3.10
2023-03-28T11:13:46.851Z,4.60
2023-03-28T11:16:25.504Z,3.80
2023-03-28T11:19:05.785Z,5.00
2023-03-28T11:21:44.996Z,4.10
2023-03-28T11:24:26.129Z,4.40
2023-03-28T11:27:15.666Z,4.50
2023-03-28T11:29:51.909Z,4.70
2023-03-28T11:32:27.752Z,4.60
2023-03-28T11:35:06.575Z,6.40
2023-03-28T11:37:41.542Z,5.80
2023-03-28T11:40:25.274Z,6.80
2023-03-28T11:43:00.271Z,7.50
2023-03-28T11:45:49.523Z,3.10
2023-03-28T11:48:29.785Z,6.10
2023-03-28T11:51:05.806Z,4.30
2023-03-28T11:53:40.954Z,4.00
2023-03-28T11:56:17.164Z,5.00
2023-03-28T11:58:51.542Z,3.10
2023-03-28T12:01:28.356Z,5.00
2023-03-28T12:04:06.467Z,3.80
2023-03-28T12:06:55.842Z,5.30
2023-03-28T12:09:42.793Z,4.50
2023-03-28T12:12:17.683Z,3.60
2023-03-28T12:14:59.194Z,5.50
2023-03-28T12:17:35.652Z,5.00
2023-03-28T12:20:14.397Z,6.20
2023-03-28T12:22:54.142Z,7.10
2023-03-28T12:25:31.202Z,5.60
2023-03-28T12:28:10.269Z,5.00
2023-03-28T12:30:48.987Z,4.60
2023-03-28T12:33:28.077Z,5.20
2023-03-28T12:36:03.574Z,6.10
2023-03-28T12:38:40.982Z,7.90
2023-03-28T12:41:16.004Z,2.70
2023-03-28T12:43:53.491Z,3.90
2023-03-28T12:46:28.958Z,3.70
2023-03-28T12:49:11.595Z,3.80
2023-03-28T12:51:48.190Z,4.40
2023-03-28T12:54:31.080Z,4.70
2023-03-28T12:57:05.476Z,6.80
2023-03-28T12:59:58.120Z,5.60
2023-03-28T13:02:36.471Z,7.80
2023-03-28T13:05:18.835Z,6.70
2023-03-28T13:08:04.282Z,7.90
2023-03-28T13:10:42.821Z,9.20
2023-03-28T13:13:22.868Z,10.10
2023-03-28T13:16:08.066Z,7.10
2023-03-28T13:18:49.160Z,5.70
2023-03-28T13:21:45.105Z,5.40
2023-03-28T13:24:32.299Z,6.20
2023-03-28T13:27:08.001Z,5.80
2023-03-28T13:29:51.381Z,7.50
2023-03-28T13:32:25.873Z,4.80
2023-03-28T13:35:00.269Z,3.80
2023-03-28T13:37:52.729Z,2.70
2023-03-28T13:40:51.560Z,4.60
2023-03-28T13:43:29.884Z,4.50
2023-03-28T13:46:05.321Z,5.40
2023-03-28T13:48:43.482Z,5.60
2023-03-28T13:51:21.595Z,4.10
2023-03-28T13:53:55.060Z,4.20
2023-03-28T13:56:29.298Z,4.00
2023-03-28T13:59:03.489Z,3.40
2023-03-28T14:01:47.068Z,3.60
2023-03-28T14:04:24.844Z,4.50
2023-03-28T14:06:59.860Z,4.80
2023-03-28T14:09:36.758Z,5.70
2023-03-28T14:12:14.091Z,5.40
2023-03-28T14:14:49.436Z,6.00
2023-03-28T14:17:26.062Z,4.60
2023-03-28T14:20:03.142Z,7.30
2023-03-28T14:22:59.096Z,5.10
2023-03-28T14:25:33.649Z,9.70
2023-03-28T14:28:10.719Z,6.90
2023-03-28T14:30:45.027Z,8.40
2023-03-28T14:33:21.924Z,9.90
2023-03-28T14:36:01.798Z,6.30
2023-03-28T14:38:38.621Z,5.90
2023-03-28T14:41:19.263Z,7.90
2023-03-28T14:43:56.045Z,8.50
2023-03-28T14:46:30.170Z,8.80
2023-03-28T14:49:07.314Z,8.10
2023-03-28T14:51:46.696Z,7.20
2023-03-28T14:54:27.454Z,6.40
2023-03-28T14:57:05.000Z,10.10
2023-03-28T14:59:41.357Z,13.50
2023-03-28T15:02:22.435Z,8.30
2023-03-28T15:04:57.520Z,9.80
2023-03-28T15:07:35.423Z,10.20
2023-03-28T15:10:12.016Z,7.20
2023-03-28T15:12:49.323Z,8.00
2023-03-28T15:15:24.035Z,10.10
2023-03-28T15:18:03.386Z,9.90
2023-03-28T15:20:39.102Z,14.30
2023-03-28T15:23:18.900Z,14.60
2023-03-28T15:25:54.978Z,13.50
2023-03-28T15:28:31.756Z,17.00
2023-03-28T15:31:08.364Z,19.10
2023-03-28T15:33:41.241Z,22.80
2023-03-28T15:36:19.066Z,27.60
2023-03-28T15:39:04.241Z,20.60
2023-03-28T15:41:48.424Z,15.00
2023-03-28T15:44:29.252Z,14.80
2023-03-28T15:47:04.577Z,12.30
2023-03-28T15:49:39.429Z,14.80
2023-03-28T15:52:19.144Z,16.90
2023-03-28T15:54:53.228Z,13.50
2023-03-28T15:57:30.226Z,19.50
2023-03-28T16:00:06.936Z,25.90
2023-03-28T16:02:42.440Z,20.80
2023-03-28T16:05:35.652Z,27.00
2023-03-28T16:08:23.434Z,33.50
2023-03-28T16:10:57.792Z,23.00
2023-03-28T16:13:33.647Z,15.00
2023-03-28T16:16:09.094Z,16.20
2023-03-28T16:18:42.990Z,14.90
2023-03-28T16:21:16.523Z,14.70
2023-03-28T16:23:50.416Z,15.80
2023-03-28T16:26:25.121Z,16.50
2023-03-28T16:29:01.071Z,14.70
2023-03-28T16:31:36.653Z,25.10
2023-03-28T16:34:10.360Z,21.20
2023-03-28T16:36:43.337Z,30.80
2023-03-28T16:39:16.196Z,37.10
2023-03-28T16:41:49.937Z,49.30
2023-03-28T16:44:23.275Z,35.50
2023-03-28T16:46:58.023Z,41.30
2023-03-28T16:49:32.264Z,27.30
2023-03-28T16:52:05.333Z,29.70
2023-03-28T16:54:38.823Z,21.50
2023-03-28T16:57:12.842Z,24.30
2023-03-28T16:59:48.499Z,16.60
2023-03-28T17:02:21.211Z,23.00
2023-03-28T17:04:55.888Z,17.80
2023-03-28T17:07:30.411Z,20.40
2023-03-28T17:10:05.474Z,13.80
2023-03-28T17:12:43.346Z,11.30
2023-03-28T17:15:17.919Z,11.60
2023-03-28T17:17:54.880Z,11.30
2023-03-28T17:20:28.082Z,10.50
2023-03-28T17:23:02.595Z,10.20
2023-03-28T17:25:48.122Z,7.60
2023-03-28T17:28:27.980Z,8.80
2023-03-28T17:31:08.066Z,8.90
2023-03-28T17:33:43.507Z,10.30
2023-03-28T17:36:22.421Z,8.90
2023-03-28T17:39:02.099Z,12.50
2023-03-28T17:41:42.003Z,11.20
2023-03-28T17:44:15.725Z,11.90
2023-03-28T17:46:54.540Z,9.70
2023-03-28T17:49:28.281Z,10.10
2023-03-28T17:52:03.365Z,12.60
2023-03-28T17:54:37.296Z,12.80
2023-03-28T17:57:11.062Z,19.00
2023-03-28T17:59:46.345Z,15.10
2023-03-28T18:02:20.397Z,15.40
2023-03-28T18:04:53.831Z,9.00
2023-03-28T18:07:27.188Z,12.80
2023-03-28T18:10:01.533Z,17.00
2023-03-28T18:12:35.566Z,22.10
2023-03-28T18:15:10.873Z,32.60
2023-03-28T18:17:44.669Z,23.00
2023-03-28T18:20:17.584Z,29.00
2023-03-28T18:22:51.492Z,27.20
2023-03-28T18:25:24.013Z,18.40
2023-03-28T18:27:57.823Z,23.70
2023-03-28T18:30:31.901Z,21.70
2023-03-28T18:33:06.355Z,23.90
2023-03-28T18:35:39.538Z,25.60
2023-03-28T18:38:18.351Z,22.20
2023-03-28T18:40:55.184Z,24.30
2023-03-28T18:43:30.299Z,19.30
2023-03-28T18:46:09.404Z,22.40
2023-03-28T18:48:42.196Z,22.20
2023-03-28T18:51:16.927Z,20.90
2023-03-28T18:53:51.050Z,21.90
2023-03-28T18:56:26.027Z,18.70
2023-03-28T18:59:00.056Z,19.00
2023-03-28T19:01:35.971Z,16.20
2023-03-28T19:04:09.300Z,15.70
2023-03-28T19:06:42.439Z,16.80
2023-03-28T19:09:18.342Z,15.70
2023-03-28T19:11:55.192Z,18.90
2023-03-28T19:14:29.802Z,24.20
2023-03-28T19:17:02.892Z,19.00
2023-03-28T19:19:37.603Z,21.10
2023-03-28T19:22:11.853Z,18.60
2023-03-28T19:24:46.427Z,21.10
2023-03-28T19:27:21.352Z,22.90
2023-03-28T19:29:54.990Z,21.40
2023-03-28T19:32:28.137Z,19.60
2023-03-28T19:35:08.655Z,18.40
2023-03-28T19:37:42.028Z,21.00
2023-03-28T19:40:17.564Z,21.20
2023-03-28T19:42:49.805Z,17.50
2023-03-28T19:45:23.124Z,14.30
2023-03-28T19:48:00.217Z,13.40
2023-03-28T19:50:38.651Z,13.70
2023-03-28T19:53:13.531Z,14.40
2023-03-28T19:55:47.510Z,19.70
2023-03-28T19:58:19.830Z,19.10
2023-03-28T20:00:54.280Z,20.70
2023-03-28T20:03:28.343Z,16.80
2023-03-28T20:06:07.803Z,23.30
2023-03-28T20:08:42.863Z,22.50
2023-03-28T20:11:16.950Z,18.30
2023-03-28T20:13:51.896Z,22.10
2023-03-28T20:16:26.236Z,18.70
2023-03-28T20:19:01.081Z,16.90
2023-03-28T20:21:35.262Z,17.00
2023-03-28T20:24:10.981Z,18.60
2023-03-28T20:26:43.474Z,19.40
2023-03-28T20:29:15.313Z,16.50
2023-03-28T20:31:48.685Z,15.70
2023-03-28T20:34:26.358Z,17.40
2023-03-28T20:37:01.304Z,17.50
2023-03-28T20:39:37.061Z,21.80
2023-03-28T20:42:12.918Z,30.30
2023-03-28T20:44:45.050Z,13.20
2023-03-28T20:47:25.419Z,12.90
2023-03-28T20:50:07.147Z,13.40
2023-03-28T20:52:42.618Z,13.20
2023-03-28T20:55:19.814Z,14.50
2023-03-28T20:57:58.660Z,14.60
2023-03-28T21:00:37.772Z,15.50
2023-03-28T21:03:12.310Z,15.00
2023-03-28T21:05:46.848Z,16.10
2023-03-28T21:08:21.541Z,16.00
2023-03-28T21:10:58.669Z,17.80
2023-03-28T21:13:34.042Z,18.20
2023-03-28T21:16:08.696Z,17.80
2023-03-28T21:18:42.725Z,17.90
2023-03-28T21:21:16.939Z,18.10
2023-03-28T21:23:49.668Z,17.10
2023-03-28T21:26:23.331Z,17.30
2023-03-28T21:28:56.955Z,16.90
2023-03-28T21:31:30.913Z,20.00
2023-03-28T21:34:05.179Z,20.70
2023-03-28T21:36:37.234Z,28.00
2023-03-28T21:39:11.040Z,22.80
2023-03-28T21:41:43.731Z,22.80
2023-03-28T21:44:19.007Z,22.80
2023-03-28T21:46:55.356Z,20.50
2023-03-28T21:49:30.629Z,24.30
2023-03-28T21:52:03.197Z,26.00
2023-03-28T21:54:38.855Z,26.90
2023-03-28T21:57:13.751Z,25.10
2023-03-28T21:59:47.949Z,26.30
2023-03-28T22:02:25.134Z,24.10
2023-03-28T22:05:01.240Z,22.10
2023-03-28T22:07:34.200Z,22.70
2023-03-28T22:10:08.383Z,22.10
2023-03-28T22:12:44.897Z,20.60
2023-03-28T22:15:19.691Z,20.00
2023-03-28T22:17:58.518Z,20.90
2023-03-28T22:20:31.761Z,23.70
2023-03-28T22:23:04.469Z,22.00
2023-03-28T22:25:39.940Z,24.20
2023-03-28T22:28:14.045Z,24.50
2023-03-28T22:33:43.319Z,21.90
2023-03-28T22:36:16.450Z,19.60
2023-03-28T22:38:49.876Z,20.10
2023-03-28T22:41:23.888Z,22.90
2023-03-28T22:43:58.683Z,23.00
2023-03-28T22:46:32.222Z,22.70
2023-03-28T22:49:05.512Z,21.70
2023-03-28T22:51:46.351Z,20.40
2023-03-28T22:54:22.909Z,19.90
2023-03-28T22:57:00.533Z,19.70
2023-03-28T22:59:33.884Z,18.40
2023-03-28T23:02:08.027Z,17.00
2023-03-28T23:04:40.355Z,17.40
2023-03-28T23:07:13.619Z,17.90
2023-03-28T23:09:46.389Z,20.60
2023-03-28T23:12:18.967Z,22.50
2023-03-28T23:14:53.698Z,22.30
2023-03-28T23:17:31.438Z,22.80
2023-03-28T23:20:07.245Z,25.10
2023-03-28T23:22:41.242Z,22.90
2023-03-28T23:25:14.910Z,25.10
2023-03-28T23:27:48.210Z,23.40
2023-03-28T23:30:21.229Z,23.70
2023-03-28T23:32:54.147Z,24.00
2023-03-28T23:35:27.335Z,21.80
2023-03-28T23:38:00.105Z,23.10
2023-03-28T23:40:34.444Z,23.50
2023-03-28T23:43:09.894Z,23.60
2023-03-28T23:45:43.845Z,25.10
2023-03-28T23:48:16.873Z,26.60
2023-03-28T23:50:48.712Z,28.40
2023-03-28T23:53:22.836Z,26.30
2023-03-28T23:55:55.103Z,26.40
2023-03-28T23:58:27.004Z,25.60
